Time;durP1;ratioP1;P1;durP2;ratioP2;P2;SDS_P1;SDS_P2;PMS_P1;PMS_P2;Temp;Humidity;BMP_temperature;BMP_pressure;BME280_temperature;BME280_humidity;BME280_pressure;Samples;Min_cycle;Max_cycle;Signal;HPM_P1;HPM_P2
2022/07/31 00:01:16;;;;;;;11.57;5.28;;;28.20;99.90;;;;;;4131794;28;20050;-72
2022/07/31 00:03:23;;;;;;;8.18;6.78;;;28.10;99.90;;;;;;4131589;28;20074;-71
2022/07/31 00:05:27;;;;;;;6.88;5.80;;;28.10;99.90;;;;;;4130902;28;20064;-71
2022/07/31 00:07:34;;;;;;;7.90;5.45;;;28.20;99.90;;;;;;4126357;28;20498;-72
2022/07/31 00:09:41;;;;;;;5.70;5.10;;;28.30;99.90;;;;;;4127289;28;20149;-72
2022/07/31 00:11:56;;;;;;;5.72;5.03;;;28.30;99.90;;;;;;4127187;28;20081;-71
2022/07/31 00:14:03;;;;;;;8.05;5.15;;;28.40;99.90;;;;;;4130558;28;20051;-73
2022/07/31 00:16:09;;;;;;;6.70;4.60;;;28.50;99.90;;;;;;4131851;28;20034;-71
2022/07/31 00:18:14;;;;;;;5.47;4.97;;;28.60;99.90;;;;;;4135849;28;20061;-71
2022/07/31 00:20:21;;;;;;;6.63;5.25;;;28.70;99.90;;;;;;4126815;28;20058;-72
2022/07/31 00:22:27;;;;;;;6.10;5.50;;;28.60;99.90;;;;;;4131187;28;20050;-70
2022/07/31 00:24:32;;;;;;;5.75;5.00;;;28.70;99.90;;;;;;4128113;28;20578;-72
2022/07/31 00:26:39;;;;;;;5.80;4.28;;;28.80;99.90;;;;;;4130089;28;20050;-72
2022/07/31 00:28:46;;;;;;;6.32;4.88;;;28.80;99.90;;;;;;4128020;28;20038;-72
2022/07/31 00:30:51;;;;;;;7.10;4.47;;;28.90;99.90;;;;;;4132248;28;20045;-71
2022/07/31 00:32:56;;;;;;;5.05;4.45;;;29.00;99.90;;;;;;4130952;28;20117;-71
2022/07/31 00:35:00;;;;;;;5.65;4.50;;;29.00;99.90;;;;;;4136335;28;20105;-72
2022/07/31 00:37:05;;;;;;;5.47;4.78;;;29.10;99.90;;;;;;4130322;28;20035;-70
2022/07/31 00:39:10;;;;;;;6.15;4.85;;;29.00;99.90;;;;;;4128050;28;20496;-72
2022/07/31 00:41:16;;;;;;;6.97;5.28;;;29.00;99.90;;;;;;4128587;28;20038;-71
2022/07/31 00:43:21;;;;;;;7.97;5.00;;;29.00;99.90;;;;;;4127524;28;20089;-70
2022/07/31 00:45:31;;;;;;;9.77;5.18;;;29.10;99.90;;;;;;4129302;28;20046;-70
2022/07/31 00:47:40;;;;;;;5.15;4.55;;;29.00;99.90;;;;;;4129758;28;20053;-69
2022/07/31 00:49:45;;;;;;;8.57;4.72;;;29.10;99.90;;;;;;4128457;28;20057;-70
2022/07/31 00:51:51;;;;;;;8.15;4.82;;;29.10;99.90;;;;;;4128252;28;20054;-70
2022/07/31 00:53:56;;;;;;;5.82;4.88;;;29.20;99.90;;;;;;4129783;28;20050;-70
2022/07/31 00:56:00;;;;;;;5.80;4.88;;;29.20;99.90;;;;;;4130855;28;20038;-70
2022/07/31 00:58:07;;;;;;;7.40;4.85;;;29.20;99.90;;;;;;4131679;28;20074;-71
2022/07/31 01:00:13;;;;;;;6.93;4.47;;;29.20;99.90;;;;;;4127604;28;20046;-72
2022/07/31 01:02:17;;;;;;;5.72;4.55;;;29.20;99.90;;;;;;4129001;28;20044;-72
2022/07/31 01:04:22;;;;;;;6.60;5.00;;;29.30;99.90;;;;;;4130653;28;20811;-71
2022/07/31 01:06:27;;;;;;;5.03;4.50;;;29.40;99.90;;;;;;4130353;28;20117;-70
2022/07/31 01:08:32;;;;;;;5.68;4.55;;;29.50;99.90;;;;;;4129323;28;20109;-71
2022/07/31 01:11:07;;;;;;;7.80;4.15;;;29.50;99.90;;;;;;4129902;28;20154;-72
2022/07/31 01:13:40;;;;;;;4.40;3.53;;;29.60;99.90;;;;;;4129252;28;20046;-72
2022/07/31 01:15:44;;;;;;;4.70;3.85;;;29.70;99.90;;;;;;4130235;28;20054;-70
2022/07/31 01:17:49;;;;;;;4.25;3.85;;;29.80;99.90;;;;;;4137896;28;20048;-71
2022/07/31 01:19:54;;;;;;;6.00;4.18;;;29.90;99.90;;;;;;4131553;28;20054;-71
2022/07/31 01:22:24;;;;;;;5.15;4.05;;;30.00;99.90;;;;;;4128078;28;20048;-71
2022/07/31 01:25:04;;;;;;;7.25;4.35;;;30.20;99.90;;;;;;4154471;28;20500;-72
2022/07/31 01:27:30;;;;;;;6.97;4.50;;;30.30;99.90;;;;;;4138965;28;20099;-71
2022/07/31 01:29:55;;;;;;;7.47;4.10;;;30.40;99.90;;;;;;4129259;28;20054;-71
2022/07/31 01:32:12;;;;;;;7.00;4.78;;;30.40;99.90;;;;;;4127224;28;20050;-72
2022/07/31 01:34:41;;;;;;;5.18;4.43;;;30.50;99.90;;;;;;4129583;28;20050;-72
2022/07/31 01:36:51;;;;;;;5.78;4.25;;;30.40;99.90;;;;;;4129311;28;20121;-72
2022/07/31 01:38:55;;;;;;;7.50;4.32;;;30.40;99.90;;;;;;4114239;28;20125;-71
2022/07/31 01:41:03;;;;;;;5.22;3.78;;;30.50;99.90;;;;;;4127413;28;20039;-72
2022/07/31 01:43:14;;;;;;;5.40;4.22;;;30.50;99.90;;;;;;4129412;28;20050;-73
2022/07/31 01:45:19;;;;;;;5.10;3.90;;;30.50;99.90;;;;;;4128222;28;20054;-72
2022/07/31 01:47:28;;;;;;;7.72;4.05;;;30.50;99.90;;;;;;4131045;28;20548;-71
2022/07/31 01:49:32;;;;;;;4.60;3.70;;;30.50;99.90;;;;;;4131636;28;20533;-71
2022/07/31 01:51:37;;;;;;;5.97;3.85;;;30.60;99.90;;;;;;4161391;28;20045;-72
2022/07/31 01:53:45;;;;;;;4.30;3.50;;;30.50;99.90;;;;;;4129049;28;20081;-72
2022/07/31 01:55:54;;;;;;;4.65;3.83;;;30.60;99.90;;;;;;4169127;28;20045;-71
2022/07/31 01:58:10;;;;;;;4.90;3.78;;;30.70;99.90;;;;;;4137568;28;20038;-72
2022/07/31 02:00:17;;;;;;;5.15;4.13;;;30.90;99.90;;;;;;4149777;28;20145;-72
2022/07/31 02:02:37;;;;;;;3.90;3.50;;;30.90;99.90;;;;;;4146519;28;20065;-72
2022/07/31 02:04:45;;;;;;;6.03;3.78;;;30.90;99.90;;;;;;4135901;28;20054;-71
2022/07/31 02:06:52;;;;;;;4.78;4.25;;;30.90;99.90;;;;;;4139050;28;20124;-74
2022/07/31 02:08:57;;;;;;;4.72;4.25;;;30.90;99.90;;;;;;4131981;28;20045;-73
2022/07/31 02:11:01;;;;;;;5.00;4.50;;;30.90;99.90;;;;;;4128881;28;20088;-71
2022/07/31 02:13:13;;;;;;;5.53;4.30;;;30.90;99.90;;;;;;4129797;28;20117;-71
2022/07/31 02:15:17;;;;;;;5.45;4.78;;;31.00;99.90;;;;;;4128086;28;20046;-71
2022/07/31 02:17:23;;;;;;;7.78;4.55;;;30.90;99.90;;;;;;4154297;28;20068;-72
2022/07/31 02:19:42;;;;;;;5.32;4.70;;;30.90;99.90;;;;;;4130716;28;20074;-71
2022/07/31 02:22:02;;;;;;;5.43;4.30;;;30.90;99.90;;;;;;4127866;28;20046;-72
2022/07/31 02:24:08;;;;;;;6.25;4.35;;;30.90;99.90;;;;;;4131936;28;20038;-70
2022/07/31 02:26:17;;;;;;;7.30;4.03;;;31.00;99.90;;;;;;4129279;28;20614;-72
2022/07/31 02:28:22;;;;;;;5.00;4.50;;;31.00;99.90;;;;;;4128509;28;20080;-71
2022/07/31 02:30:29;;;;;;;5.00;4.47;;;31.00;99.90;;;;;;4129789;28;20057;-72
2022/07/31 02:32:47;;;;;;;8.98;4.50;;;31.00;99.90;;;;;;4128714;28;20117;-72
2022/07/31 02:34:54;;;;;;;5.00;4.50;;;31.00;99.90;;;;;;4130845;28;20050;-73
2022/07/31 02:36:59;;;;;;;13.75;5.30;;;31.10;99.90;;;;;;4127541;28;20100;-71
2022/07/31 02:39:08;;;;;;;5.85;4.75;;;31.20;99.90;;;;;;4129975;28;20524;-72
2022/07/31 02:41:13;;;;;;;7.38;4.55;;;31.40;99.90;;;;;;4114004;28;20049;-71
2022/07/31 02:43:18;;;;;;;5.70;4.13;;;31.40;99.90;;;;;;4130841;28;20061;-71
2022/07/31 02:45:25;;;;;;;4.80;4.28;;;31.40;99.90;;;;;;4130238;28;20050;-71
2022/07/31 02:47:30;;;;;;;5.30;4.32;;;31.50;99.90;;;;;;4129299;28;20042;-71
2022/07/31 02:49:37;;;;;;;4.78;4.15;;;31.50;99.90;;;;;;4115234;28;20042;-71
2022/07/31 02:51:44;;;;;;;6.05;4.43;;;31.50;99.90;;;;;;4076495;28;20070;-71
2022/07/31 02:53:50;;;;;;;5.13;3.88;;;31.70;99.90;;;;;;4130037;28;20034;-71
2022/07/31 02:55:56;;;;;;;7.50;4.20;;;31.80;99.90;;;;;;4129843;28;20405;-70
2022/07/31 02:58:07;;;;;;;5.35;4.78;;;31.80;99.90;;;;;;4127934;28;20069;-72
2022/07/31 03:00:21;;;;;;;5.47;4.60;;;31.80;99.90;;;;;;4129269;28;20092;-72
2022/07/31 03:02:28;;;;;;;5.57;4.07;;;31.90;99.90;;;;;;4127062;28;20034;-71
2022/07/31 03:04:40;;;;;;;5.55;4.28;;;31.90;99.90;;;;;;4136269;28;20146;-69
2022/07/31 03:06:47;;;;;;;6.65;4.25;;;31.80;99.90;;;;;;4135660;28;20050;-71
2022/07/31 03:08:51;;;;;;;4.97;4.18;;;31.90;99.90;;;;;;4142451;28;20042;-71
2022/07/31 03:10:59;;;;;;;5.03;4.53;;;31.90;99.90;;;;;;4136407;28;20057;-72
2022/07/31 03:13:04;;;;;;;5.93;4.40;;;31.90;99.90;;;;;;4132703;28;20848;-71
2022/07/31 03:15:11;;;;;;;5.13;4.43;;;31.90;99.90;;;;;;4132072;28;20057;-71
2022/07/31 03:17:18;;;;;;;6.10;4.38;;;31.80;99.90;;;;;;4137244;28;20046;-70
2022/07/31 03:19:23;;;;;;;8.45;4.78;;;32.00;99.90;;;;;;4140377;28;20050;-72
2022/07/31 03:21:28;;;;;;;5.45;4.60;;;32.10;99.90;;;;;;4130326;28;20058;-72
2022/07/31 03:23:36;;;;;;;6.60;4.70;;;32.10;99.90;;;;;;4133758;28;20038;-72
2022/07/31 03:25:51;;;;;;;6.65;4.68;;;32.20;99.90;;;;;;4129571;28;20046;-71
2022/07/31 03:27:59;;;;;;;5.82;4.90;;;32.30;99.90;;;;;;4132439;28;20042;-70
2022/07/31 03:30:06;;;;;;;6.20;4.68;;;32.30;99.90;;;;;;4130306;28;20148;-71
2022/07/31 03:32:11;;;;;;;6.10;4.65;;;32.40;99.90;;;;;;4129244;28;20047;-72
2022/07/31 03:34:16;;;;;;;7.07;4.55;;;32.50;99.90;;;;;;4131911;28;20085;-71
2022/07/31 03:36:23;;;;;;;5.18;4.57;;;32.60;99.90;;;;;;4136254;28;20873;-70
2022/07/31 03:38:29;;;;;;;4.80;4.20;;;32.60;99.90;;;;;;4137580;28;20049;-71
2022/07/31 03:41:00;;;;;;;4.82;4.15;;;32.60;99.90;;;;;;4127452;28;20056;-70
2022/07/31 03:43:08;;;;;;;6.28;4.50;;;32.60;99.90;;;;;;4079146;29;20051;-70
2022/07/31 03:45:13;;;;;;;5.57;4.05;;;32.90;99.90;;;;;;4157880;28;20053;-70
2022/07/31 03:47:19;;;;;;;5.43;4.43;;;32.90;99.90;;;;;;4158259;28;20037;-70
2022/07/31 03:49:26;;;;;;;5.55;4.28;;;33.00;99.90;;;;;;4128233;28;20046;-71
2022/07/31 03:51:31;;;;;;;5.47;4.50;;;33.10;99.90;;;;;;4127766;28;20125;-70
2022/07/31 03:53:36;;;;;;;6.00;4.50;;;33.10;99.90;;;;;;4127746;28;20055;-70
2022/07/31 03:55:42;;;;;;;7.15;4.25;;;33.10;99.90;;;;;;4077361;29;20838;-71
2022/07/31 03:57:47;;;;;;;9.00;4.68;;;33.00;99.90;;;;;;4128073;28;20038;-72
2022/07/31 03:59:56;;;;;;;6.45;4.20;;;33.00;99.90;;;;;;4128948;28;20046;-71
2022/07/31 04:02:06;;;;;;;6.15;4.70;;;32.90;99.90;;;;;;4091851;28;20059;-71
2022/07/31 04:04:17;;;;;;;5.18;4.40;;;32.80;99.90;;;;;;4127938;28;20402;-73
2022/07/31 04:06:33;;;;;;;5.07;4.25;;;32.70;99.90;;;;;;4140247;28;20615;-72
2022/07/31 04:08:39;;;;;;;6.35;4.68;;;32.70;99.90;;;;;;4129029;28;20046;-72
2022/07/31 04:10:44;;;;;;;6.30;4.72;;;32.70;99.90;;;;;;4127629;28;20567;-71
2022/07/31 04:12:53;;;;;;;5.32;4.60;;;32.80;99.90;;;;;;4127664;28;20042;-70
2022/07/31 04:15:01;;;;;;;8.85;4.70;;;32.70;99.90;;;;;;4127040;28;20138;-71
2022/07/31 04:17:05;;;;;;;6.25;4.47;;;32.70;99.90;;;;;;4125963;28;20043;-71
2022/07/31 04:19:10;;;;;;;5.32;4.35;;;32.60;99.90;;;;;;4127598;28;20494;-70
2022/07/31 04:21:15;;;;;;;6.88;5.18;;;32.60;99.90;;;;;;4127268;28;20053;-70
2022/07/31 04:23:20;;;;;;;5.88;4.88;;;32.60;99.90;;;;;;4152587;28;20048;-70
2022/07/31 04:25:46;;;;;;;5.35;4.55;;;32.60;99.90;;;;;;4133827;28;20047;-71
2022/07/31 04:28:07;;;;;;;8.35;5.63;;;32.60;99.90;;;;;;4130129;28;20054;-71
2022/07/31 04:30:14;;;;;;;5.47;4.63;;;32.60;99.90;;;;;;4136666;28;20092;-70
2022/07/31 04:32:20;;;;;;;9.00;5.45;;;32.50;99.90;;;;;;4137683;28;20041;-70
2022/07/31 04:34:32;;;;;;;6.15;5.47;;;32.50;99.90;;;;;;4132709;28;20047;-70
2022/07/31 04:36:38;;;;;;;6.32;5.28;;;32.60;99.90;;;;;;4132908;28;20449;-72
2022/07/31 04:38:45;;;;;;;6.18;5.53;;;32.60;99.90;;;;;;4136151;28;20046;-71
2022/07/31 04:40:52;;;;;;;6.45;5.50;;;32.60;99.90;;;;;;4143053;28;20165;-73
2022/07/31 04:42:57;;;;;;;6.10;5.50;;;32.60;99.90;;;;;;4139615;28;20066;-70
2022/07/31 04:45:02;;;;;;;6.63;5.60;;;32.60;99.90;;;;;;4118190;28;20053;-71
2022/07/31 04:47:09;;;;;;;5.72;4.95;;;32.60;99.90;;;;;;4131167;28;20042;-71
2022/07/31 04:49:17;;;;;;;7.07;6.32;;;32.60;99.90;;;;;;4140378;28;20046;-69
2022/07/31 04:51:23;;;;;;;6.47;5.78;;;32.60;99.90;;;;;;4131786;28;20293;-71
2022/07/31 04:53:29;;;;;;;6.68;5.97;;;32.60;99.90;;;;;;4087600;29;20110;-69
2022/07/31 04:55:33;;;;;;;6.85;6.15;;;32.60;99.90;;;;;;4140618;28;20058;-70
2022/07/31 04:57:38;;;;;;;6.22;5.63;;;32.60;99.90;;;;;;4136442;28;20421;-70
2022/07/31 04:59:46;;;;;;;7.32;5.30;;;32.60;99.90;;;;;;4132417;28;20158;-70
2022/07/31 05:02:05;;;;;;;7.93;6.13;;;32.50;99.90;;;;;;4130453;28;20070;-69
2022/07/31 05:04:11;;;;;;;7.15;5.82;;;32.50;99.90;;;;;;4130675;28;20070;-71
2022/07/31 05:06:18;;;;;;;7.07;6.38;;;32.40;99.90;;;;;;4130539;28;20073;-72
2022/07/31 05:08:23;;;;;;;6.53;5.50;;;32.30;99.90;;;;;;4129979;28;20076;-69
2022/07/31 05:12:50;;;;;;;11.60;6.57;;;32.30;99.90;;;;;;4128911;28;20121;-69
2022/07/31 05:14:55;;;;;;;9.23;6.18;;;32.30;99.90;;;;;;4129789;28;20091;-70
2022/07/31 05:17:01;;;;;;;8.45;6.75;;;32.40;99.90;;;;;;4157635;28;20148;-70
2022/07/31 05:19:29;;;;;;;10.57;7.72;;;32.40;99.90;;;;;;4119828;28;20046;-70
2022/07/31 05:21:39;;;;;;;10.63;7.25;;;32.20;99.90;;;;;;4121580;28;20105;-72
2022/07/31 05:24:16;;;;;;;10.05;7.18;;;32.20;99.90;;;;;;4131462;28;20409;-71
2022/07/31 05:26:45;;;;;;;8.65;7.32;;;32.10;99.90;;;;;;4129925;28;20046;-69
2022/07/31 05:28:51;;;;;;;10.43;7.25;;;32.00;99.90;;;;;;4130675;28;20054;-72
2022/07/31 05:31:03;;;;;;;8.88;7.20;;;31.90;99.90;;;;;;4144721;28;20045;-72
2022/07/31 05:33:08;;;;;;;13.65;7.10;;;31.90;99.90;;;;;;4146254;28;20576;-70
2022/07/31 05:35:14;;;;;;;12.32;7.28;;;31.90;99.90;;;;;;4145879;28;20045;-72
2022/07/31 05:37:19;;;;;;;9.07;7.40;;;31.90;99.90;;;;;;4129895;28;20047;-73
2022/07/31 05:39:24;;;;;;;9.98;6.72;;;31.90;99.90;;;;;;4113850;28;20078;-72
2022/07/31 05:41:50;;;;;;;8.63;6.88;;;31.80;99.90;;;;;;4129838;28;20457;-72
2022/07/31 05:44:14;;;;;;;9.32;7.40;;;31.90;99.90;;;;;;4130494;28;20050;-70
2022/07/31 05:46:23;;;;;;;7.50;6.72;;;31.90;99.90;;;;;;4130579;28;20070;-70
2022/07/31 05:48:28;;;;;;;7.78;6.97;;;32.00;99.90;;;;;;4130563;28;20113;-70
2022/07/31 05:50:33;;;;;;;10.45;7.13;;;32.10;99.90;;;;;;4130968;28;20054;-70
2022/07/31 05:52:40;;;;;;;7.90;7.10;;;32.10;99.90;;;;;;4129930;28;20147;-70
2022/07/31 05:54:57;;;;;;;8.30;7.50;;;32.10;99.90;;;;;;4129471;28;20058;-69
2022/07/31 05:57:21;;;;;;;7.50;6.80;;;32.10;99.90;;;;;;4130797;28;20042;-68
2022/07/31 05:59:39;;;;;;;7.35;6.65;;;32.20;99.90;;;;;;4129396;28;20444;-69
2022/07/31 06:01:45;;;;;;;7.97;7.18;;;32.10;99.90;;;;;;4130001;28;20517;-69
2022/07/31 06:03:50;;;;;;;10.18;7.40;;;32.10;99.90;;;;;;4129545;28;20050;-69
2022/07/31 06:06:00;;;;;;;9.27;6.95;;;32.10;99.90;;;;;;4129330;28;20517;-69
2022/07/31 06:08:05;;;;;;;9.05;7.15;;;32.20;99.90;;;;;;4129686;28;20528;-69
2022/07/31 06:10:15;;;;;;;7.45;6.75;;;32.20;99.90;;;;;;4128575;28;20177;-69
2022/07/31 06:12:22;;;;;;;8.60;7.03;;;32.20;99.90;;;;;;4129280;28;20042;-69
2022/07/31 06:14:27;;;;;;;7.40;6.60;;;32.20;99.90;;;;;;4128860;28;20133;-70
2022/07/31 06:16:48;;;;;;;6.72;6.00;;;32.30;99.90;;;;;;4129347;28;20056;-69
2022/07/31 06:18:55;;;;;;;9.30;6.63;;;32.30;99.90;;;;;;4092443;28;20135;-69
2022/07/31 06:21:01;;;;;;;8.55;7.40;;;32.30;99.90;;;;;;4129345;28;20050;-68
2022/07/31 06:23:07;;;;;;;9.93;6.95;;;32.40;99.90;;;;;;4129288;28;20078;-69
2022/07/31 06:25:33;;;;;;;7.80;7.00;;;32.30;99.90;;;;;;4082153;28;20295;-71
2022/07/31 06:27:41;;;;;;;7.32;6.30;;;32.40;99.90;;;;;;4129635;28;20501;-70
2022/07/31 06:29:55;;;;;;;7.88;6.82;;;32.50;99.90;;;;;;4133190;28;20140;-70
2022/07/31 06:32:01;;;;;;;9.15;6.93;;;32.40;99.90;;;;;;4146396;28;20077;-70
2022/07/31 06:34:06;;;;;;;7.97;6.93;;;32.50;99.90;;;;;;4178046;28;20057;-70
2022/07/31 06:36:16;;;;;;;9.82;6.90;;;32.60;99.90;;;;;;4121276;28;20130;-70
2022/07/31 06:38:30;;;;;;;7.30;6.53;;;32.60;99.90;;;;;;4113164;28;20081;-69
2022/07/31 06:40:46;;;;;;;7.88;7.15;;;32.70;99.90;;;;;;4128574;28;20244;-69
2022/07/31 06:43:09;;;;;;;;;;;32.90;99.90;;;;;;4128856;28;20069;-70
2022/07/31 06:45:28;;;;;;;7.45;6.75;;;32.90;99.90;;;;;;4128877;28;20024;-71
2022/07/31 06:48:13;;;;;;;8.13;6.68;;;32.90;99.90;;;;;;4130106;28;20049;-70
2022/07/31 06:50:27;;;;;;;9.57;7.10;;;33.00;99.90;;;;;;4129002;28;20529;-70
2022/07/31 06:52:53;;;;;;;7.43;6.57;;;33.10;99.90;;;;;;4128020;28;20046;-70
2022/07/31 06:55:00;;;;;;;9.50;6.95;;;33.00;99.90;;;;;;4128429;28;20058;-70
2022/07/31 06:57:07;;;;;;;9.95;6.05;;;33.00;99.90;;;;;;4128404;28;20089;-70
2022/07/31 06:59:13;;;;;;;7.15;6.45;;;33.10;99.90;;;;;;4128927;28;20603;-70
2022/07/31 07:01:38;;;;;;;8.07;6.60;;;32.90;99.90;;;;;;4128448;28;20054;-70
2022/07/31 07:03:43;;;;;;;8.55;6.18;;;32.90;99.90;;;;;;4132945;28;20125;-69
2022/07/31 07:05:49;;;;;;;7.57;6.03;;;32.90;99.90;;;;;;4135504;28;20511;-70
2022/07/31 07:07:54;;;;;;;5.70;5.10;;;33.00;99.90;;;;;;4137664;28;20112;-71
2022/07/31 07:10:00;;;;;;;7.85;4.93;;;33.00;99.90;;;;;;4135608;28;20082;-70
2022/07/31 07:12:19;;;;;;;7.47;4.72;;;33.00;99.90;;;;;;4139049;28;20047;-73
2022/07/31 07:14:25;;;;;;;5.68;4.55;;;32.90;99.90;;;;;;4168644;28;20074;-72
2022/07/31 07:16:31;;;;;;;5.53;4.65;;;32.70;99.90;;;;;;4137364;28;20054;-73
2022/07/31 07:18:36;;;;;;;6.07;4.35;;;32.60;99.90;;;;;;4134823;28;20121;-73
2022/07/31 07:20:47;;;;;;;6.95;4.32;;;32.50;99.90;;;;;;4133491;28;20405;-70
2022/07/31 07:22:53;;;;;;;5.88;4.65;;;32.50;99.90;;;;;;4135443;28;20140;-73
2022/07/31 07:25:19;;;;;;;4.10;3.63;;;32.50;99.90;;;;;;4134471;28;20045;-72
2022/07/31 07:27:26;;;;;;;4.80;4.28;;;32.30;99.90;;;;;;4135628;28;20041;-73
2022/07/31 07:29:33;;;;;;;3.97;3.55;;;32.30;99.90;;;;;;4136916;28;20046;-72
2022/07/31 07:31:40;;;;;;;4.45;3.42;;;32.20;99.90;;;;;;4168112;28;20044;-73
2022/07/31 07:33:47;;;;;;;4.35;3.20;;;31.90;99.70;;;;;;4134795;28;20050;-72
2022/07/31 07:35:58;;;;;;;4.57;3.50;;;31.50;99.70;;;;;;4132495;28;20049;-75
2022/07/31 07:38:05;;;;;;;5.30;3.10;;;30.90;99.10;;;;;;4142679;28;20088;-75
2022/07/31 07:40:12;;;;;;;4.30;2.90;;;30.80;98.80;;;;;;4133589;28;20398;-74
2022/07/31 07:42:17;;;;;;;19.45;11.93;;;30.50;98.30;;;;;;4129459;28;21177;-72
2022/07/31 07:44:26;;;;;;;12.20;7.07;;;30.30;99.90;;;;;;4127383;28;20093;-72
2022/07/31 07:46:31;;;;;;;10.23;6.55;;;29.40;99.90;;;;;;4128755;28;20382;-72
2022/07/31 07:48:38;;;;;;;7.03;3.63;;;29.80;99.90;;;;;;4095468;28;20502;-73
2022/07/31 07:50:52;;;;;;;8.55;5.10;;;29.70;99.90;;;;;;4127880;28;20129;-71
2022/07/31 07:53:04;;;;;;;9.07;3.78;;;29.70;99.90;;;;;;4128257;28;20057;-72
2022/07/31 07:55:25;;;;;;;5.68;2.60;;;29.70;99.90;;;;;;4128153;28;20045;-71
2022/07/31 07:57:53;;;;;;;7.68;2.28;;;29.60;99.90;;;;;;4128846;28;20600;-69
2022/07/31 08:00:18;;;;;;;10.65;2.90;;;29.60;99.90;;;;;;4128779;28;20077;-69
2022/07/31 08:02:29;;;;;;;5.65;1.92;;;29.40;99.90;;;;;;4129449;28;20579;-69
2022/07/31 08:04:36;;;;;;;10.82;2.58;;;29.00;99.90;;;;;;4127695;28;20603;-70
2022/07/31 08:06:41;;;;;;;4.70;2.30;;;28.80;99.90;;;;;;4127341;28;20050;-70
2022/07/31 08:08:45;;;;;;;7.90;2.15;;;28.80;99.90;;;;;;4127625;28;20038;-70
2022/07/31 08:11:03;;;;;;;5.15;2.03;;;28.90;99.90;;;;;;4128323;28;20432;-69
2022/07/31 08:13:27;;;;;;;5.63;1.98;;;28.80;99.90;;;;;;4128498;28;20129;-69
2022/07/31 08:15:46;;;;;;;4.40;2.10;;;28.50;99.90;;;;;;4133544;28;20042;-69
2022/07/31 08:18:03;;;;;;;8.00;2.35;;;28.70;99.90;;;;;;4128253;28;20441;-70
2022/07/31 08:20:09;;;;;;;7.07;2.40;;;28.90;99.90;;;;;;4140074;28;20095;-70
2022/07/31 08:22:15;;;;;;;9.82;6.20;;;29.00;99.90;;;;;;4120382;28;20042;-69
2022/07/31 08:24:20;;;;;;;8.13;4.20;;;29.20;99.90;;;;;;4129181;28;20050;-70
2022/07/31 08:26:25;;;;;;;8.07;3.90;;;29.00;99.90;;;;;;4117074;28;20057;-70
2022/07/31 08:28:35;;;;;;;5.50;3.60;;;29.00;99.90;;;;;;4118831;28;20395;-70
2022/07/31 08:30:41;;;;;;;7.75;3.10;;;29.10;99.90;;;;;;4114937;28;20037;-70
2022/07/31 08:32:48;;;;;;;3.88;2.80;;;29.00;99.90;;;;;;4134089;28;20058;-71
2022/07/31 08:35:13;;;;;;;11.00;3.05;;;29.00;99.90;;;;;;4135566;28;20053;-71
2022/07/31 08:37:20;;;;;;;8.27;3.00;;;29.10;99.90;;;;;;4133311;28;20410;-70
2022/07/31 08:39:47;;;;;;;6.32;2.60;;;29.00;99.90;;;;;;4165160;28;20041;-71
2022/07/31 08:41:54;;;;;;;7.50;2.67;;;29.00;99.90;;;;;;4132443;28;20076;-72
2022/07/31 08:43:59;;;;;;;6.03;2.95;;;29.10;99.90;;;;;;4134628;28;20046;-72
2022/07/31 08:46:09;;;;;;;6.93;2.85;;;29.20;99.90;;;;;;4119534;28;20141;-74
2022/07/31 08:48:14;;;;;;;5.75;2.72;;;29.30;99.90;;;;;;4134801;28;20464;-72
2022/07/31 08:50:24;;;;;;;4.93;2.75;;;29.30;99.90;;;;;;4118736;28;20069;-72
2022/07/31 08:52:31;;;;;;;7.05;3.00;;;29.30;99.90;;;;;;4126814;28;20052;-73
2022/07/31 08:54:52;;;;;;;7.82;3.65;;;29.30;99.90;;;;;;4105132;28;20195;-70
2022/07/31 08:57:02;;;;;;;8.88;3.70;;;29.30;99.90;;;;;;4134556;28;20058;-72
2022/07/31 08:59:07;;;;;;;6.90;3.47;;;29.30;99.90;;;;;;4139670;28;20053;-69
2022/07/31 09:01:14;;;;;;;4.45;2.67;;;29.30;99.90;;;;;;4132536;28;20129;-71
2022/07/31 09:03:21;;;;;;;6.22;2.72;;;29.20;99.90;;;;;;4130831;28;20057;-72
2022/07/31 09:05:30;;;;;;;7.13;3.00;;;29.10;99.90;;;;;;4128798;28;20077;-70
2022/07/31 09:07:48;;;;;;;5.35;2.60;;;29.00;99.90;;;;;;4127564;28;20606;-71
2022/07/31 09:09:56;;;;;;;7.43;2.72;;;28.90;99.90;;;;;;4130737;28;20051;-72
2022/07/31 09:12:02;;;;;;;7.60;3.05;;;28.90;99.90;;;;;;4130215;28;20149;-71
2022/07/31 09:14:33;;;;;;;7.68;3.15;;;28.80;99.90;;;;;;4131127;28;20054;-71
2022/07/31 09:16:49;;;;;;;4.25;3.08;;;28.80;99.90;;;;;;4134917;28;20050;-72
2022/07/31 09:19:01;;;;;;;6.50;3.13;;;28.80;99.90;;;;;;4145324;28;20124;-71
2022/07/31 09:21:26;;;;;;;4.50;3.28;;;28.80;99.90;;;;;;4139740;28;20051;-72
2022/07/31 09:23:32;;;;;;;4.25;3.20;;;28.70;99.90;;;;;;4151795;28;20508;-70
2022/07/31 09:25:37;;;;;;;7.47;3.25;;;28.60;99.90;;;;;;4111240;28;20739;-69
2022/07/31 09:27:42;;;;;;;7.35;3.78;;;28.80;99.90;;;;;;4131667;28;20533;-70
2022/07/31 09:29:48;;;;;;;5.35;3.67;;;28.60;99.90;;;;;;4133272;28;20053;-71
2022/07/31 09:32:12;;;;;;;8.25;4.00;;;28.70;99.90;;;;;;4141575;28;20520;-71
2022/07/31 09:34:37;;;;;;;7.03;4.40;;;28.80;99.90;;;;;;4146378;28;20471;-70
2022/07/31 09:36:47;;;;;;;7.95;4.15;;;28.80;99.90;;;;;;4133366;28;20045;-72
2022/07/31 09:39:13;;;;;;;6.55;4.15;;;28.90;99.90;;;;;;4141063;28;20594;-69
2022/07/31 09:41:51;;;;;;;7.25;4.30;;;28.90;99.90;;;;;;4131599;28;20120;-71
2022/07/31 09:44:39;;;;;;;8.00;4.22;;;28.90;99.90;;;;;;4129532;28;20434;-70
2022/07/31 09:46:47;;;;;;;8.85;3.85;;;28.90;99.90;;;;;;4095444;29;20498;-70
2022/07/31 09:48:52;;;;;;;7.20;4.32;;;28.80;99.90;;;;;;4136370;28;20042;-71
2022/07/31 09:51:07;;;;;;;8.60;6.00;;;28.80;99.90;;;;;;4143364;28;20045;-72
2022/07/31 09:53:14;;;;;;;12.32;7.47;;;28.80;99.90;;;;;;4137168;28;20053;-71
2022/07/31 09:55:24;;;;;;;10.55;6.65;;;28.80;99.90;;;;;;4129379;28;20132;-71
2022/07/31 09:57:29;;;;;;;7.47;5.20;;;28.80;99.90;;;;;;4136948;28;20519;-71
2022/07/31 09:59:35;;;;;;;5.93;4.88;;;28.80;99.90;;;;;;4136833;28;20088;-71
2022/07/31 10:01:42;;;;;;;8.00;5.00;;;28.80;99.90;;;;;;4129615;28;20137;-71
2022/07/31 10:03:49;;;;;;;7.57;4.50;;;28.80;99.90;;;;;;4134415;28;20073;-72
2022/07/31 10:05:54;;;;;;;14.05;9.02;;;28.80;99.90;;;;;;4138894;28;20403;-70
2022/07/31 10:08:01;;;;;;;8.07;6.60;;;28.90;99.90;;;;;;4135827;28;20521;-73
2022/07/31 10:10:22;;;;;;;11.27;7.82;;;28.90;99.90;;;;;;4138904;28;20045;-71
2022/07/31 10:12:50;;;;;;;12.85;7.03;;;28.80;99.90;;;;;;4127690;28;20093;-71
2022/07/31 10:14:57;;;;;;;9.93;6.55;;;28.80;99.90;;;;;;4151468;28;20152;-70
2022/07/31 10:17:03;;;;;;;11.02;7.13;;;28.80;99.90;;;;;;4128704;28;20128;-71
2022/07/31 10:19:31;;;;;;;10.27;7.68;;;28.80;99.90;;;;;;4131225;28;20116;-71
2022/07/31 10:21:54;;;;;;;11.70;7.70;;;28.80;99.90;;;;;;4130643;28;20042;-71
2022/07/31 10:24:04;;;;;;;12.18;7.93;;;28.80;99.90;;;;;;4128959;28;20042;-70
2022/07/31 10:26:08;;;;;;;13.27;8.30;;;28.80;99.90;;;;;;4114115;28;20113;-70
2022/07/31 10:28:16;;;;;;;11.68;8.93;;;28.80;99.90;;;;;;4113895;28;20197;-70
2022/07/31 10:30:22;;;;;;;12.18;9.60;;;28.80;99.90;;;;;;4136762;28;20152;-70
2022/07/31 10:32:34;;;;;;;10.23;9.23;;;28.80;99.90;;;;;;4112302;28;20058;-71
2022/07/31 10:34:50;;;;;;;12.27;9.07;;;28.80;99.90;;;;;;4141418;28;20100;-70
2022/07/31 10:37:44;;;;;;;13.93;9.52;;;28.80;99.90;;;;;;4127880;28;20062;-70
2022/07/31 10:40:30;;;;;;;7.93;7.13;;;28.80;99.90;;;;;;4142092;28;20552;-71
2022/07/31 10:42:45;;;;;;;10.88;8.10;;;28.80;99.90;;;;;;4140258;28;20100;-71
2022/07/31 10:45:07;;;;;;;9.65;8.32;;;28.80;99.90;;;;;;4138313;28;20050;-71
2022/07/31 10:47:22;;;;;;;12.77;9.15;;;28.70;99.90;;;;;;4138420;28;20445;-71
2022/07/31 10:49:48;;;;;;;10.82;7.97;;;28.70;99.90;;;;;;4141032;28;20045;-72
2022/07/31 10:51:55;;;;;;;12.05;7.45;;;28.70;99.90;;;;;;4142850;28;20081;-71
2022/07/31 10:54:12;;;;;;;9.63;7.40;;;28.60;99.90;;;;;;4142760;28;20067;-73
2022/07/31 10:56:41;;;;;;;12.93;7.57;;;28.60;99.90;;;;;;4129736;28;20050;-73
2022/07/31 10:59:00;;;;;;;10.52;7.43;;;28.70;99.90;;;;;;4128008;28;20062;-72
2022/07/31 11:01:25;;;;;;;9.23;7.43;;;28.70;99.90;;;;;;4128575;28;20397;-74
2022/07/31 11:03:52;;;;;;;10.23;6.70;;;28.70;99.90;;;;;;4125478;28;20137;-73
2022/07/31 11:06:08;;;;;;;8.45;5.97;;;28.60;99.90;;;;;;4126124;28;20062;-73
2022/07/31 11:08:25;;;;;;;8.68;6.25;;;28.60;99.90;;;;;;4129037;28;20129;-72
2022/07/31 11:10:38;;;;;;;9.00;6.75;;;28.60;99.90;;;;;;4126685;28;20062;-72
2022/07/31 11:13:00;;;;;;;8.20;6.22;;;28.60;99.90;;;;;;4114254;28;20063;-72
2022/07/31 11:15:21;;;;;;;8.77;6.40;;;28.60;99.90;;;;;;4127555;28;20042;-71
2022/07/31 11:17:46;;;;;;;7.65;6.20;;;28.50;99.90;;;;;;4129318;28;20480;-71
2022/07/31 11:20:30;;;;;;;9.82;6.47;;;28.50;99.90;;;;;;4110834;28;20855;-71
2022/07/31 11:22:34;;;;;;;8.30;6.43;;;28.50;99.90;;;;;;4110670;28;20121;-73
2022/07/31 11:24:39;;;;;;;7.43;6.03;;;28.50;99.90;;;;;;4110650;28;20047;-71